Adri Lab — WDF2836 — position and weather

sailwx.info

Track history (hours):
 
Tides and Currents Weather Stations Pressure Air Temp Water Temp Dewpoint Dewpoint Depression Visibility Wind Speed Wind Dir Waves Ship Positions

Adri Lab

Owner: LABORDE BROTHERS CREWBOATS LLC, MORGAN CITY, LA. More information available from US FCC via Universal Licensing System and Coast Guard Vessel Documentation Center.

Last reported at 2017-Sep-21 07:32 UTC. Time now 2017-Sep-24 19:23 UTC.
Position N 29°35' W 092°18'.

Length 44 m; draft 2.5 m.

Type: Cargo ship. MMSI: 268112000.

Date/timePositionNaut miles runAvg speedWind from/ knotsBaromVisibWave heightAir tempDewpointWater temp
2017-Sep-21 07:32N 29°35' W 092°18'313.2
2017-Sep-21 07:20N 29°38' W 092°16'412.7
2017-Sep-21 07:00N 29°42' W 092°15'612.2
2017-Sep-21 06:30N 29°46' W 092°11'2 4.0
2017-Sep-21 05:59N 29°48' W 092°09'0 0.0
2017-Sep-21 05:29N 29°48' W 092°09'0 0.1
2017-Sep-21 04:59N 29°47' W 092°09'1 2.9
2017-Sep-21 04:30N 29°47' W 092°10'1 1.8
2017-Sep-21 03:58N 29°47' W 092°11'0 0.0
2017-Sep-21 03:28N 29°47' W 092°11'0 0.0
2017-Sep-21 03:00N 29°47' W 092°11'2 4.4
2017-Sep-21 02:30N 29°48' W 092°09'0 0.0
2017-Sep-21 02:01N 29°48' W 092°09'4 8.4
2017-Sep-21 01:30N 29°45' W 092°13'11 0.3
2017-Sep-19 08:08N 29°35' W 092°18'320.4
2017-Sep-19 08:00N 29°38' W 092°16'918.8
2017-Sep-19 07:30N 29°46' W 092°11'3 5.7
2017-Sep-19 07:00N 29°48' W 092°09'0 0.0
2017-Sep-19 06:30N 29°48' W 092°09'2 4.0
2017-Sep-19 06:00N 29°46' W 092°11'10 0.4
2017-Sep-18 06:06N 29°38' W 092°16'112.1
2017-Sep-18 06:00N 29°39' W 092°16'612.7
2017-Sep-18 05:31N 29°45' W 092°13'5 9.7
2017-Sep-18 05:00N 29°48' W 092°09'0 0.0
2017-Sep-18 04:30N 29°48' W 092°09'0 0.0
2017-Sep-18 04:00N 29°48' W 092°09'0 0.0
2017-Sep-18 03:30N 29°48' W 092°09'2 3.5
2017-Sep-18 03:00N 29°47' W 092°10'1 1.3
2017-Sep-18 02:30N 29°47' W 092°11'2 4.4
2017-Sep-18 02:00N 29°47' W 092°09'0 0.2
2017-Sep-18 01:30N 29°47' W 092°09'0 0.0
2017-Sep-18 01:00N 29°47' W 092°09'2 3.7
2017-Sep-18 00:31N 29°46' W 092°10'  
2017-Sep-15 17:30N 29°48' W 092°09'0 0.0
2017-Sep-15 03:40N 29°48' W 092°09'0 0.0
2017-Sep-15 03:30N 29°48' W 092°09'0 0.0
2017-Sep-15 03:00N 29°48' W 092°09'0 0.0
2017-Sep-15 02:31N 29°48' W 092°09'0 0.0
2017-Sep-15 02:01N 29°48' W 092°09'0 0.0
2017-Sep-14 14:02N 29°48' W 092°09'0 0.0
2017-Sep-14 13:59N 29°48' W 092°09'0 0.0
2017-Sep-14 13:29N 29°48' W 092°09'0 0.0
2017-Sep-14 12:56N 29°48' W 092°09'0 0.0
2017-Sep-14 12:26N 29°48' W 092°09'0 0.0
2017-Sep-14 11:59N 29°48' W 092°09'0 0.0
2017-Sep-14 08:47N 29°48' W 092°09'0 0.1
2017-Sep-14 08:30N 29°48' W 092°09'2 4.3
2017-Sep-14 08:00N 29°47' W 092°11'0 0.0
2017-Sep-14 07:30N 29°47' W 092°11'0 0.0
2017-Sep-14 07:00N 29°47' W 092°11'0 0.0
2017-Sep-14 06:30N 29°47' W 092°11'0 0.0
2017-Sep-14 06:00N 29°47' W 092°11'1 2.3
2017-Sep-14 05:30N 29°47' W 092°10'1 2.0
2017-Sep-14 05:00N 29°47' W 092°09'0 0.0
2017-Sep-14 04:20N 29°47' W 092°09'0 0.0
2017-Sep-14 04:00N 29°47' W 092°09'0 0.1
2017-Sep-14 03:30N 29°48' W 092°09'0 0.0
2017-Sep-14 03:00N 29°48' W 092°09'0 0.0
2017-Sep-14 02:30N 29°48' W 092°09'0 0.0
2017-Sep-14 02:00N 29°48' W 092°09'0 0.0
2017-Sep-14 01:30N 29°48' W 092°09'0 0.0
2017-Sep-14 01:00N 29°48' W 092°09'0 0.0
2017-Sep-14 00:30N 29°48' W 092°09'0 0.0
2017-Sep-14 00:00N 29°48' W 092°09'0 0.1
2017-Sep-13 23:30N 29°47' W 092°09'613.0
2017-Sep-13 23:01N 29°44' W 092°15'  
Track history (hours):
 
Tides and Currents Weather Stations Pressure Air Temp Water Temp Dewpoint Dewpoint Depression Visibility Wind Speed Wind Dir Waves Ship Positions

Adri Lab

Owner: LABORDE BROTHERS CREWBOATS LLC, MORGAN CITY, LA. More information available from US FCC via Universal Licensing System and Coast Guard Vessel Documentation Center.

Last reported at 2017-Sep-21 07:32 UTC. Time now 2017-Sep-24 19:23 UTC.
Position N 29°35' W 092°18'.

Length 44 m; draft 2.5 m.

Type: Cargo ship. MMSI: 268112000.

Date/timePositionNaut miles runAvg speedWind from/ knotsBaromVisibWave heightAir tempDewpointWater temp
2017-Sep-21 07:32N 29°35' W 092°18'313.2
2017-Sep-21 07:20N 29°38' W 092°16'412.7
2017-Sep-21 07:00N 29°42' W 092°15'612.2
2017-Sep-21 06:30N 29°46' W 092°11'2 4.0
2017-Sep-21 05:59N 29°48' W 092°09'0 0.0
2017-Sep-21 05:29N 29°48' W 092°09'0 0.1
2017-Sep-21 04:59N 29°47' W 092°09'1 2.9
2017-Sep-21 04:30N 29°47' W 092°10'1 1.8
2017-Sep-21 03:58N 29°47' W 092°11'0 0.0
2017-Sep-21 03:28N 29°47' W 092°11'0 0.0
2017-Sep-21 03:00N 29°47' W 092°11'2 4.4
2017-Sep-21 02:30N 29°48' W 092°09'0 0.0
2017-Sep-21 02:01N 29°48' W 092°09'4 8.4
2017-Sep-21 01:30N 29°45' W 092°13'11 0.3
2017-Sep-19 08:08N 29°35' W 092°18'320.4
2017-Sep-19 08:00N 29°38' W 092°16'918.8
2017-Sep-19 07:30N 29°46' W 092°11'3 5.7
2017-Sep-19 07:00N 29°48' W 092°09'0 0.0
2017-Sep-19 06:30N 29°48' W 092°09'2 4.0
2017-Sep-19 06:00N 29°46' W 092°11'10 0.4
2017-Sep-18 06:06N 29°38' W 092°16'112.1
2017-Sep-18 06:00N 29°39' W 092°16'612.7
2017-Sep-18 05:31N 29°45' W 092°13'5 9.7
2017-Sep-18 05:00N 29°48' W 092°09'0 0.0
2017-Sep-18 04:30N 29°48' W 092°09'0 0.0
2017-Sep-18 04:00N 29°48' W 092°09'0 0.0
2017-Sep-18 03:30N 29°48' W 092°09'2 3.5
2017-Sep-18 03:00N 29°47' W 092°10'1 1.3
2017-Sep-18 02:30N 29°47' W 092°11'2 4.4
2017-Sep-18 02:00N 29°47' W 092°09'0 0.2
2017-Sep-18 01:30N 29°47' W 092°09'0 0.0
2017-Sep-18 01:00N 29°47' W 092°09'2 3.7
2017-Sep-18 00:31N 29°46' W 092°10'  
2017-Sep-15 17:30N 29°48' W 092°09'0 0.0
2017-Sep-15 03:40N 29°48' W 092°09'0 0.0
2017-Sep-15 03:30N 29°48' W 092°09'0 0.0
2017-Sep-15 03:00N 29°48' W 092°09'0 0.0
2017-Sep-15 02:31N 29°48' W 092°09'0 0.0
2017-Sep-15 02:01N 29°48' W 092°09'0 0.0
2017-Sep-14 14:02N 29°48' W 092°09'0 0.0
2017-Sep-14 13:59N 29°48' W 092°09'0 0.0
2017-Sep-14 13:29N 29°48' W 092°09'0 0.0
2017-Sep-14 12:56N 29°48' W 092°09'0 0.0
2017-Sep-14 12:26N 29°48' W 092°09'0 0.0
2017-Sep-14 11:59N 29°48' W 092°09'0 0.0
2017-Sep-14 08:47N 29°48' W 092°09'0 0.1
2017-Sep-14 08:30N 29°48' W 092°09'2 4.3
2017-Sep-14 08:00N 29°47' W 092°11'0 0.0
2017-Sep-14 07:30N 29°47' W 092°11'0 0.0
2017-Sep-14 07:00N 29°47' W 092°11'0 0.0
2017-Sep-14 06:30N 29°47' W 092°11'0 0.0
2017-Sep-14 06:00N 29°47' W 092°11'1 2.3
2017-Sep-14 05:30N 29°47' W 092°10'1 2.0
2017-Sep-14 05:00N 29°47' W 092°09'0 0.0
2017-Sep-14 04:20N 29°47' W 092°09'0 0.0
2017-Sep-14 04:00N 29°47' W 092°09'0 0.1
2017-Sep-14 03:30N 29°48' W 092°09'0 0.0
2017-Sep-14 03:00N 29°48' W 092°09'0 0.0
2017-Sep-14 02:30N 29°48' W 092°09'0 0.0
2017-Sep-14 02:00N 29°48' W 092°09'0 0.0
2017-Sep-14 01:30N 29°48' W 092°09'0 0.0
2017-Sep-14 01:00N 29°48' W 092°09'0 0.0
2017-Sep-14 00:30N 29°48' W 092°09'0 0.0
2017-Sep-14 00:00N 29°48' W 092°09'0 0.1
2017-Sep-13 23:30N 29°47' W 092°09'613.0
2017-Sep-13 23:01N 29°44' W 092°15'  

Dump ship's entire track history